Etusivu
METAR-TAF:

METAR-TAF

Lentoasemat :

Paso de los Libres, Argentiina

Leveyspiiri: 29-41S, Pituuspiiri: 057-09W, korkeus merenpinnasta: 69 m

Tämänhetkinen sää

Tämä raportti tehtiin 11 tuntia ja 22 minuuttia sitten, kello 09.00 UTC
Tuuli 10 kn etelästä
Lämpötila 20°C
Kosteus 94%
Ilmanpaine 1004 hPa
Näkyvyys 10 km tai enemmän
Hajonneita pilviä 600 ft:n korkeudessa

METAR: SARL 030900Z 18010KT 9999 BKN006 20/19 Q1004

Aika: 17:22 (20:22 UTC)


TAF: puuttuu

Säähavainnot ja -ennusteet yli 4000 lentoasemalta (METAR- ja TAF-raportit).

Käytössä olevat sääasemat on merkitty karttaan keltaisilla ja punaisilla pisteillä.

Aseta hiiri pisteen päälle nähdäksesi sääaseman nimen.

Klikkaa sitten nähdäksesi säähavainnot ja -ennusteet.

Kartan vaihtaminen: klikkaa mustalla rastilla varustettuja vihreitä pisteitä, niin voit zoomata sisään; viivalla varustettua vihreää pistettä, niin voit zoomata ulos tai vihreitä nuolia, niin pääset viereisille kartoille.


METAR-TAF: